Nearby METAR Reports

 

KCOS - Colorado Springs, Colorado, USA
Distance from station: S 6mi, 9km
Updated: Sun, 25-Jun-2017 7:17pm MDT
Thunderstorm, Mostly cloudy
Thunderstorm, Mostly cloudy
 Wind from ESE
Wind: ESE 14 mph , 22 km/h
Temperature: 70°F , 21°C
Dew Point: 55°F , 13°C
Humidity: 60%
Barometer: 30.30 inHg , 1026.1 hPa
Summary: Thunderstorm
Clouds: Mostly cloudy
Visibility: 10 miles , 16 km
Cloud details: Few Clouds 3500 ft
Mostly cloudy 5000 ft
Mostly cloudy 14000 ft
Mostly cloudy 25000 ft
2017/06/26 01:17 KCOS 260117Z 12012KT 10SM TS FEW035 BKN050CB BKN140 BKN250 21/13 A3030 RMK AO2 TSB15 OCNL LTGICCG NE TS NE MOV SE T02060128
KAFF - Usaf Academy/Cos, Colorado, USA
Distance from station: NW 7mi, 12km
Updated: Sun, 25-Jun-2017 6:58pm MDT
Overcast
Overcast
 Wind from WNW
Wind: WNW 7 mph , 11 km/h
Temperature: 70°F , 21°C
Dew Point: 54°F , 12°C
Humidity: 57%
Barometer: 30.31 inHg , 1026.4 hPa
Clouds: Overcast
Visibility: 10 miles , 16 km
Cloud details: Mostly cloudy 3600 ft
Overcast 4700 ft
2017/06/26 00:58 KAFF 260058Z AUTO 30006KT 10SM BKN036 OVC047 21/12 A3031 RMK AO2 SLP195 T02070115
 
KFLY - Co Spngs Meadow, Colorado, USA
Distance from station: ENE 8mi, 13km
Updated: Sun, 25-Jun-2017 7:35pm MDT
Nearby Thunderstorm
Nearby Thunderstorm
 Wind from ESE
Wind: ESE 12 mph , 19 km/h
Temperature: 63°F , 17°C
Dew Point: 52°F , 11°C
Humidity: 68%
Barometer: 30.37 inHg , 1028.4 hPa
Summary: Nearby Thunderstorm
Visibility: 10 miles , 16 km
2017/06/26 01:35 KFLY 260135Z AUTO 11010KT 10SM VCTS 17/11 A3037 RMK AO2 LTG DSNT S AND SW T01670112
KFCS - Fort Carson, Colorado, USA
Distance from station: S 17mi, 27km
Updated: Sun, 25-Jun-2017 7:35pm MDT
Thunderstorm, Overcast
Thunderstorm, Overcast
 Wind from ESE
Wind: ESE 13 mph , 20 km/h
Temperature: 68°F , 20°C
Dew Point: 54°F , 12°C
Humidity: 60%
Barometer: 30.28 inHg , 1025.4 hPa
Summary: Thunderstorm
Clouds: Overcast
Visibility: 10 miles , 16 km
Cloud details: Mostly cloudy 3900 ft
Overcast 4900 ft
2017/06/26 01:35 KFCS 260135Z AUTO 11011KT 10SM TS BKN039 OVC049 20/12 A3028 RMK AO2 TSB35 SLP211 $
 
KMNH - Monument/Elbert, Colorado, USA
Distance from station: N 22mi, 35km
Updated: Sun, 25-Jun-2017 7:33pm MDT
Mostly cloudy
Mostly cloudy
 Wind from NNE
Wind: NNE 6 mph , 9 km/h
Temperature: 63°F , 17°C
Dew Point: 52°F , 11°C
Humidity: 68%
Barometer: 30.37 inHg , 1028.4 hPa
Clouds: Mostly cloudy
Visibility: 10 miles , 16 km
Cloud details: Partly cloudy 3800 ft
Mostly cloudy 4900 ft
2017/06/26 01:33 KMNH 260133Z AUTO 03005KT 10SM SCT038 BKN049 17/11 A3037 RMK AO2 LTG DSNT S
K1V6 - Canon City, Colorado, USA
Distance from station: SSW 39mi, 62km
Updated: Tue, 16-May-2017 7:35am MDT
NOT Current
Clear
Clear
 Wind from W
Wind: W 3 mph , 6 km/h
Temperature: 63°F , 17°C
Dew Point: 28°F , -2°C
Humidity: 27%
Barometer: 29.76 inHg , 1007.8 hPa
Clouds: Clear
Visibility: 10 miles , 16 km
2017/05/16 13:35 K1V6 161335Z AUTO 26003KT 10SM CLR 17/M02 A2976 RMK AO2
 
KPUB - Pueblo, Colorado, USA
Distance from station: SSE 44mi, 71km
Updated: Sun, 25-Jun-2017 6:53pm MDT
Clear
Clear
 Wind from E
Wind: E 23 mph , 37 km/h, Gust: 30 mph , 48 km/h
Temperature: 73°F , 23°C
Dew Point: 57°F , 14°C
Humidity: 57%
Barometer: 30.19 inHg , 1022.4 hPa
Clouds: Clear
Visibility: 10 miles , 16 km
2017/06/26 00:53 KPUB 260053Z 09020G26KT 10SM CLR 23/14 A3019 RMK AO2 PK WND 07027/0027 RAE2354 SLP167 P0000 T02330144
KAPA - Denver/Arapahoe, Colorado, USA
Distance from station: N 47mi, 75km
Updated: Sun, 25-Jun-2017 6:53pm MDT
Mostly cloudy
Mostly cloudy
 Wind from NE
Wind: NE 12 mph , 19 km/h
Temperature: 70°F , 21°C
Dew Point: 54°F , 12°C
Humidity: 57%
Barometer: 30.30 inHg , 1026.1 hPa
Clouds: Mostly cloudy
Visibility: 10 miles , 16 km
Cloud details: Mostly cloudy 4700 ft
2017/06/26 00:53 KAPA 260053Z 04010KT 10SM BKN047 21/12 A3030 RMK AO2 SLP208 T02110117